Time;durP1;ratioP1;P1;durP2;ratioP2;P2;SDS_P1;SDS_P2;PMS_P1;PMS_P2;Temp;Humidity;BMP_temperature;BMP_pressure;BME280_temperature;BME280_humidity;BME280_pressure;Samples;Min_cycle;Max_cycle;Signal;HPM_P1;HPM_P2
2023/07/09 00:02:24;;;;;;;7.25;4.53;;;20.80;1.00;;;;;;5104650;28;20173;-83
2023/07/09 00:04:50;;;;;;;7.72;4.65;;;20.70;1.00;;;;;;5105332;28;20204;-85
2023/07/09 00:07:29;;;;;;;5.20;4.38;;;20.60;1.00;;;;;;5104860;28;20176;-85
2023/07/09 00:09:55;;;;;;;6.38;4.20;;;20.70;25.90;;;;;;5102199;28;20811;-83
2023/07/09 00:12:21;;;;;;;6.20;4.53;;;20.70;99.90;;;;;;5101296;28;20182;-84
2023/07/09 00:14:47;;;;;;;6.25;4.70;;;20.60;99.90;;;;;;5103160;28;20251;-83
2023/07/09 00:17:33;;;;;;;5.40;4.28;;;20.50;1.00;;;;;;5103872;28;20176;-83
2023/07/09 00:19:59;;;;;;;4.57;4.15;;;20.50;1.00;;;;;;5102698;28;20195;-83
2023/07/09 00:22:26;;;;;;;5.43;4.50;;;20.50;1.00;;;;;;5086097;28;20195;-85
2023/07/09 00:24:56;;;;;;;4.88;4.18;;;20.40;1.00;;;;;;5085486;28;20199;-83
2023/07/09 00:27:24;;;;;;;5.22;4.13;;;20.20;1.00;;;;;;5083926;28;20176;-83
2023/07/09 00:29:52;;;;;;;5.03;4.18;;;20.20;99.90;;;;;;5084842;28;20200;-83
2023/07/09 00:32:24;;;;;;;5.22;4.50;;;20.40;99.90;;;;;;5084042;28;20165;-83
2023/07/09 00:34:51;;;;;;;5.78;3.80;;;20.40;99.90;;;;;;5082316;28;20189;-83
2023/07/09 00:37:19;;;;;;;6.07;4.03;;;20.40;99.90;;;;;;5085372;28;20173;-83
2023/07/09 00:39:46;;;;;;;5.70;4.50;;;20.20;99.90;;;;;;5082708;28;20173;-84
2023/07/09 00:42:17;;;;;;;6.50;4.35;;;20.10;1.00;;;;;;5083268;28;20181;-83
2023/07/09 00:44:47;;;;;;;4.47;4.03;;;20.00;1.00;;;;;;5083214;28;20200;-83
2023/07/09 00:47:26;;;;;;;6.47;4.32;;;19.90;1.00;;;;;;5085294;28;20196;-83
2023/07/09 00:50:21;;;;;;;5.75;4.03;;;19.80;1.00;;;;;;5082902;28;20274;-83
2023/07/09 00:52:54;;;;;;;4.95;3.92;;;20.00;99.90;;;;;;5082171;28;20177;-83
2023/07/09 00:55:25;;;;;;;4.97;4.25;;;19.90;1.00;;;;;;5083353;28;20578;-83
2023/07/09 00:57:57;;;;;;;5.32;4.30;;;20.00;1.00;;;;;;5085449;28;20252;-82
2023/07/09 01:00:35;;;;;;;5.30;4.10;;;20.00;1.00;;;;;;5084520;28;20196;-83
2023/07/09 01:03:03;;;;;;;5.10;4.28;;;19.90;1.00;;;;;;5084941;28;20181;-83
2023/07/09 01:05:29;;;;;;;5.03;4.15;;;19.80;1.00;;;;;;5083266;28;20189;-83
2023/07/09 01:07:58;;;;;;;6.75;4.18;;;19.90;1.00;;;;;;5082698;28;20177;-83
2023/07/09 01:10:24;;;;;;;4.25;3.50;;;19.90;1.00;;;;;;5098345;28;20192;-84
2023/07/09 01:12:50;;;;;;;4.40;3.85;;;19.70;99.90;;;;;;5089835;28;20172;-84
2023/07/09 01:15:16;;;;;;;4.47;3.72;;;19.70;99.90;;;;;;5095317;28;20566;-83
2023/07/09 01:17:44;;;;;;;4.72;4.00;;;19.60;1.00;;;;;;5104522;28;20168;-83
2023/07/09 01:20:16;;;;;;;5.32;3.97;;;19.50;1.00;;;;;;5096113;28;20255;-83
2023/07/09 01:22:41;;;;;;;5.32;4.13;;;19.60;1.00;;;;;;5105697;28;20203;-84
2023/07/09 01:25:09;;;;;;;4.75;3.85;;;19.50;1.00;;;;;;5103962;28;20192;-83
2023/07/09 01:27:41;;;;;;;6.05;4.20;;;19.60;1.00;;;;;;5106282;28;20179;-84
2023/07/09 01:30:14;;;;;;;4.38;3.50;;;19.60;1.00;;;;;;5104197;28;20200;-83
2023/07/09 01:32:45;;;;;;;4.43;3.63;;;19.60;1.00;;;;;;5103566;28;20164;-83
2023/07/09 01:35:11;;;;;;;4.03;3.60;;;19.70;1.00;;;;;;5104268;28;20194;-84
2023/07/09 01:37:38;;;;;;;5.13;3.45;;;19.50;99.90;;;;;;5104151;28;20247;-83
2023/07/09 01:40:05;;;;;;;5.50;3.55;;;19.50;99.90;;;;;;5103527;28;20267;-83
2023/07/09 01:42:32;;;;;;;3.92;3.22;;;19.40;47.90;;;;;;5106079;28;20180;-83
2023/07/09 01:44:57;;;;;;;4.15;3.40;;;19.40;1.00;;;;;;5106873;28;20191;-83
2023/07/09 01:47:24;;;;;;;4.55;3.60;;;19.40;1.00;;;;;;5106023;28;20525;-83
2023/07/09 01:49:57;;;;;;;4.13;3.50;;;19.40;1.00;;;;;;5105922;28;20200;-83
2023/07/09 01:52:24;;;;;;;5.80;3.30;;;19.40;1.00;;;;;;5096625;28;20175;-85
2023/07/09 01:54:50;;;;;;;5.60;3.58;;;19.40;1.00;;;;;;5104057;28;20208;-83
2023/07/09 01:57:33;;;;;;;4.93;3.80;;;19.40;1.00;;;;;;5105534;28;20220;-83
2023/07/09 02:00:00;;;;;;;5.00;3.50;;;19.40;1.00;;;;;;5098099;28;20183;-85
2023/07/09 02:02:26;;;;;;;4.78;3.30;;;19.30;1.00;;;;;;5105938;28;20180;-84
2023/07/09 02:04:54;;;;;;;3.95;3.30;;;19.40;1.00;;;;;;5113559;28;20272;-83
2023/07/09 02:07:22;;;;;;;4.75;3.53;;;19.30;1.00;;;;;;5109588;28;20176;-83
2023/07/09 02:09:48;;;;;;;4.07;3.22;;;19.20;1.00;;;;;;5100954;28;20196;-83
2023/07/09 02:12:15;;;;;;;5.00;3.20;;;19.10;60.70;;;;;;5102879;28;20168;-83
2023/07/09 02:14:41;;;;;;;4.10;3.50;;;19.10;99.90;;;;;;5102866;28;20195;-83
2023/07/09 02:17:09;;;;;;;5.78;3.65;;;19.00;99.90;;;;;;5101675;28;20545;-84
2023/07/09 02:19:35;;;;;;;3.88;3.40;;;18.90;99.90;;;;;;5101230;28;20181;-85
2023/07/09 02:22:01;;;;;;;4.57;3.45;;;18.90;99.90;;;;;;5101434;28;20173;-83
2023/07/09 02:24:27;;;;;;;4.78;3.40;;;18.90;1.00;;;;;;5103334;28;20196;-83
2023/07/09 02:26:57;;;;;;;5.70;3.50;;;18.80;1.00;;;;;;5103281;28;20173;-83
2023/07/09 02:29:24;;;;;;;5.10;3.72;;;18.90;1.00;;;;;;5102367;28;20198;-83
2023/07/09 02:31:51;;;;;;;5.28;3.47;;;18.70;1.00;;;;;;5101051;28;20220;-83
2023/07/09 02:34:18;;;;;;;6.05;3.67;;;18.70;1.00;;;;;;5094643;28;20200;-83
2023/07/09 02:36:44;;;;;;;4.55;3.20;;;18.70;1.00;;;;;;5105378;28;20199;-83
2023/07/09 02:39:12;;;;;;;4.03;3.10;;;18.50;54.80;;;;;;5106247;28;20180;-82
2023/07/09 02:41:41;;;;;;;3.85;3.20;;;18.50;1.00;;;;;;5105658;28;20556;-85
2023/07/09 02:44:07;;;;;;;3.50;3.10;;;18.50;1.00;;;;;;5097560;28;20196;-83
2023/07/09 02:46:33;;;;;;;5.27;3.17;;;18.30;99.90;;;;;;5107426;28;20172;-83
2023/07/09 02:49:00;;;;;;;4.57;3.03;;;18.20;99.90;;;;;;5107582;28;20255;-83
2023/07/09 02:51:26;;;;;;;4.82;3.47;;;18.30;1.00;;;;;;5106685;28;20221;-83
2023/07/09 02:53:56;;;;;;;4.80;3.50;;;18.40;99.90;;;;;;5105956;28;20695;-84
2023/07/09 02:56:22;;;;;;;6.13;3.65;;;18.60;1.00;;;;;;5106954;28;20200;-84
2023/07/09 02:58:47;;;;;;;4.77;3.47;;;18.80;99.90;;;;;;5107227;28;20190;-83
2023/07/09 03:01:13;;;;;;;5.20;3.80;;;18.90;99.90;;;;;;5105725;28;20172;-85
2023/07/09 03:03:39;;;;;;;4.70;3.43;;;18.80;99.90;;;;;;5106871;28;20205;-84
2023/07/09 03:06:06;;;;;;;4.43;3.53;;;18.80;1.00;;;;;;5107103;28;20184;-84
2023/07/09 03:08:31;;;;;;;5.18;3.55;;;18.50;1.00;;;;;;5111311;28;20199;-83
2023/07/09 03:10:57;;;;;;;4.80;3.50;;;18.40;99.90;;;;;;5109673;28;20283;-84
2023/07/09 03:13:23;;;;;;;4.10;3.70;;;18.30;99.90;;;;;;5103301;28;20172;-83
2023/07/09 03:15:58;;;;;;;4.67;3.50;;;18.10;99.90;;;;;;5101487;28;20226;-83
2023/07/09 03:18:24;;;;;;;4.90;3.40;;;18.10;1.00;;;;;;5102903;28;20171;-84
2023/07/09 03:20:50;;;;;;;5.07;3.40;;;18.00;1.00;;;;;;5101931;28;20237;-83
2023/07/09 03:23:16;;;;;;;4.53;3.63;;;17.90;1.00;;;;;;5102450;28;20266;-84
2023/07/09 03:25:45;;;;;;;5.17;3.33;;;18.00;1.00;;;;;;5103959;28;20230;-84
2023/07/09 03:28:12;;;;;;;4.20;3.23;;;18.00;1.00;;;;;;5101913;28;20176;-83
2023/07/09 03:30:45;;;;;;;4.90;3.67;;;17.90;1.00;;;;;;5102607;28;20208;-83
2023/07/09 03:33:12;;;;;;;4.90;3.50;;;17.70;99.90;;;;;;5101477;28;20179;-83
2023/07/09 03:35:41;;;;;;;4.37;3.40;;;17.60;1.00;;;;;;5101722;28;20192;-83
2023/07/09 03:38:08;;;;;;;5.27;3.40;;;17.60;1.00;;;;;;5101514;28;20176;-84
2023/07/09 03:40:34;;;;;;;4.87;3.70;;;17.60;1.00;;;;;;5102627;28;20208;-82
2023/07/09 03:43:00;;;;;;;5.23;3.40;;;17.50;1.00;;;;;;5102590;28;20169;-83
2023/07/09 03:45:25;;;;;;;4.23;3.47;;;17.40;99.90;;;;;;5101971;28;20203;-82
2023/07/09 03:47:51;;;;;;;4.83;3.73;;;17.30;99.90;;;;;;5101229;28;20190;-83
2023/07/09 03:50:17;;;;;;;4.03;3.30;;;17.40;1.00;;;;;;5102436;28;20226;-84
2023/07/09 03:52:43;;;;;;;5.57;3.30;;;17.30;1.00;;;;;;5101536;28;20172;-84
2023/07/09 03:55:09;;;;;;;3.50;3.20;;;17.40;1.00;;;;;;5101584;28;20682;-82
2023/07/09 03:57:35;;;;;;;4.30;3.40;;;17.60;93.90;;;;;;5102789;28;20168;-83
2023/07/09 04:00:03;;;;;;;4.07;2.93;;;17.60;1.00;;;;;;5101881;28;20176;-83
2023/07/09 04:02:28;;;;;;;4.87;3.23;;;17.60;1.00;;;;;;5100398;28;20203;-83
2023/07/09 04:04:54;;;;;;;4.17;3.13;;;17.60;1.00;;;;;;5101190;28;20189;-82
2023/07/09 04:07:19;;;;;;;4.60;3.30;;;17.60;1.00;;;;;;5101465;28;20199;-84
2023/07/09 04:09:45;;;;;;;3.80;3.33;;;17.60;99.90;;;;;;5100241;28;20230;-83
2023/07/09 04:12:10;;;;;;;5.27;3.40;;;17.60;92.30;;;;;;5101621;28;20171;-83
2023/07/09 04:14:36;;;;;;;4.67;3.50;;;17.60;1.00;;;;;;5102319;28;20189;-84
2023/07/09 04:17:02;;;;;;;3.97;3.30;;;17.70;99.90;;;;;;5100636;28;20177;-84
2023/07/09 04:19:28;;;;;;;4.23;3.40;;;17.80;1.00;;;;;;5102780;28;20183;-83
2023/07/09 04:21:54;;;;;;;4.67;3.40;;;17.80;1.00;;;;;;5101074;28;20244;-82
2023/07/09 04:24:20;;;;;;;4.10;3.27;;;17.90;1.00;;;;;;5101842;28;20263;-82
2023/07/09 04:26:46;;;;;;;4.40;3.73;;;17.90;1.00;;;;;;5100842;28;20183;-82
2023/07/09 04:29:12;;;;;;;3.90;3.40;;;17.70;99.90;;;;;;5101032;28;20538;-83
2023/07/09 04:31:38;;;;;;;4.57;3.70;;;17.70;99.90;;;;;;5093905;28;20192;-82
2023/07/09 04:34:04;;;;;;;5.30;3.13;;;17.70;1.00;;;;;;5098003;28;20200;-83
2023/07/09 04:36:31;;;;;;;4.33;3.30;;;17.70;1.00;;;;;;5088949;28;20610;-81
2023/07/09 04:38:56;;;;;;;6.90;3.60;;;17.80;99.90;;;;;;5081782;28;20173;-83
2023/07/09 04:41:22;;;;;;;4.50;3.63;;;18.00;99.90;;;;;;5078151;28;20238;-83
2023/07/09 04:43:48;;;;;;;3.87;3.10;;;18.00;1.00;;;;;;5075469;28;20197;-84
2023/07/09 04:46:13;;;;;;;5.07;3.50;;;18.00;99.90;;;;;;5076701;28;20181;-83
2023/07/09 04:48:39;;;;;;;6.47;3.27;;;17.90;1.00;;;;;;5075038;28;20180;-84
2023/07/09 04:51:04;;;;;;;4.60;3.77;;;17.80;1.00;;;;;;5076368;28;20200;-84
2023/07/09 04:53:30;;;;;;;4.80;3.70;;;18.00;1.00;;;;;;5074818;28;20650;-83
2023/07/09 04:55:56;;;;;;;4.37;3.50;;;18.00;99.90;;;;;;5076059;28;20189;-82
2023/07/09 04:58:22;;;;;;;4.00;3.23;;;18.00;99.90;;;;;;5075260;28;20188;-84
2023/07/09 05:00:47;;;;;;;5.13;3.90;;;18.10;1.00;;;;;;5075327;28;20185;-83
2023/07/09 05:03:14;;;;;;;3.83;3.33;;;18.10;99.90;;;;;;5087039;28;20245;-83
2023/07/09 05:05:44;;;;;;;4.80;3.77;;;18.20;1.00;;;;;;5096966;28;20279;-83
2023/07/09 05:08:09;;;;;;;5.17;3.70;;;18.20;99.90;;;;;;5097144;28;20180;-83
2023/07/09 05:10:50;;;;;;;4.60;3.70;;;18.30;1.00;;;;;;5095516;28;20250;-82
2023/07/09 05:13:16;;;;;;;5.20;3.80;;;18.30;1.00;;;;;;5089328;28;20168;-82
2023/07/09 05:15:45;;;;;;;4.73;4.00;;;18.40;1.00;;;;;;5097761;28;20191;-84
2023/07/09 05:18:15;;;;;;;4.10;3.63;;;18.50;99.90;;;;;;5096157;28;20206;-83
2023/07/09 05:20:41;;;;;;;5.07;4.07;;;18.60;1.00;;;;;;5095807;28;20222;-83
2023/07/09 05:23:09;;;;;;;7.40;4.43;;;18.70;99.90;;;;;;5089448;28;20169;-81
2023/07/09 05:25:34;;;;;;;4.27;3.77;;;18.70;1.00;;;;;;5087000;28;20189;-81
2023/07/09 05:28:00;;;;;;;7.20;4.33;;;18.70;1.00;;;;;;5097464;28;20178;-82
2023/07/09 05:30:26;;;;;;;5.73;4.47;;;18.70;1.00;;;;;;5076265;28;20197;-82
2023/07/09 05:32:53;;;;;;;4.87;4.30;;;18.80;1.00;;;;;;5076801;28;20201;-83
2023/07/09 05:35:19;;;;;;;5.15;4.10;;;18.80;99.90;;;;;;5074922;28;20200;-81
2023/07/09 05:37:44;;;;;;;5.30;4.20;;;18.90;1.00;;;;;;5076169;28;20173;-82
2023/07/09 05:40:10;;;;;;;5.20;3.83;;;19.00;99.90;;;;;;5076325;28;20184;-81
2023/07/09 05:42:36;;;;;;;5.43;4.20;;;19.10;1.00;;;;;;5079089;28;20268;-83
2023/07/09 05:45:01;;;;;;;7.03;4.40;;;19.20;99.90;;;;;;5094732;28;20202;-84
2023/07/09 05:47:27;;;;;;;4.37;3.90;;;19.30;1.00;;;;;;5094202;28;20172;-82
2023/07/09 05:49:52;;;;;;;6.17;4.03;;;19.40;1.00;;;;;;5085762;28;20208;-82
2023/07/09 05:52:23;;;;;;;9.30;4.53;;;19.50;99.90;;;;;;5094371;28;20184;-82
2023/07/09 05:54:50;;;;;;;6.72;4.53;;;19.50;99.90;;;;;;5089578;28;20295;-82
2023/07/09 05:57:16;;;;;;;6.13;4.30;;;19.60;99.90;;;;;;5101092;28;20213;-84
2023/07/09 05:59:42;;;;;;;6.15;5.00;;;19.70;99.90;;;;;;5102945;28;20206;-82
2023/07/09 06:02:15;;;;;;;6.40;4.50;;;19.80;99.90;;;;;;5101697;28;20164;-82
2023/07/09 06:04:42;;;;;;;5.60;4.60;;;19.90;99.90;;;;;;5102383;28;20255;-83
2023/07/09 06:07:08;;;;;;;243.45;38.25;;;20.00;1.00;;;;;;5103150;28;20175;-83
2023/07/09 06:09:34;;;;;;;5.43;4.53;;;20.10;1.00;;;;;;5093350;28;20637;-83
2023/07/09 06:12:01;;;;;;;6.80;4.53;;;20.20;1.00;;;;;;5090048;28;20169;-85
2023/07/09 06:14:26;;;;;;;7.05;5.07;;;20.20;99.90;;;;;;5092014;28;20197;-83
2023/07/09 06:16:52;;;;;;;4.97;4.47;;;20.30;1.00;;;;;;5092736;28;20183;-83
2023/07/09 06:19:18;;;;;;;6.63;4.75;;;20.40;1.00;;;;;;5084727;28;20257;-83
2023/07/09 06:21:43;;;;;;;5.80;5.00;;;20.50;99.90;;;;;;5075067;28;20291;-83
2023/07/09 06:24:09;;;;;;;5.78;4.53;;;20.60;1.00;;;;;;5076330;28;20197;-83
2023/07/09 06:26:35;;;;;;;6.10;4.43;;;20.70;1.00;;;;;;5077849;28;20259;-83
2023/07/09 06:29:01;;;;;;;5.72;4.68;;;20.80;99.90;;;;;;5077266;28;20204;-83
2023/07/09 06:31:26;;;;;;;5.88;4.10;;;20.90;1.00;;;;;;5077186;28;20268;-83
2023/07/09 06:33:52;;;;;;;5.43;4.28;;;21.10;99.90;;;;;;5077722;28;20540;-83
2023/07/09 06:36:19;;;;;;;5.10;4.60;;;21.20;1.00;;;;;;5077495;28;20168;-84
2023/07/09 06:38:45;;;;;;;5.35;4.35;;;21.30;1.00;;;;;;5079136;28;20177;-83
2023/07/09 06:41:12;;;;;;;6.60;4.30;;;21.40;1.00;;;;;;5089595;28;20181;-83
2023/07/09 06:43:38;;;;;;;6.20;4.65;;;21.50;51.30;;;;;;5081373;28;20168;-83
2023/07/09 06:46:05;;;;;;;7.13;4.22;;;21.60;1.00;;;;;;5100084;28;20181;-85
2023/07/09 06:48:31;;;;;;;5.90;4.07;;;21.70;99.90;;;;;;5085004;28;20183;-83
2023/07/09 06:50:58;;;;;;;6.53;4.00;;;21.80;99.90;;;;;;5077523;28;20287;-84
2023/07/09 06:53:26;;;;;;;4.90;3.75;;;22.00;1.00;;;;;;5075875;28;20173;-83
2023/07/09 06:55:55;;;;;;;7.47;4.45;;;22.10;1.00;;;;;;5095894;28;20189;-84
2023/07/09 06:58:21;;;;;;;6.70;4.55;;;22.30;1.00;;;;;;5088006;28;20661;-84
2023/07/09 07:00:49;;;;;;;4.63;3.88;;;22.40;1.00;;;;;;5098048;28;20576;-83
2023/07/09 07:03:15;;;;;;;4.40;3.85;;;22.50;99.90;;;;;;5099172;28;20183;-83
2023/07/09 07:05:49;;;;;;;5.40;3.90;;;22.60;1.00;;;;;;5098954;28;20193;-84
2023/07/09 07:08:17;;;;;;;4.78;3.40;;;22.80;76.60;;;;;;5099579;28;20165;-83
2023/07/09 07:10:44;;;;;;;5.20;3.80;;;22.90;1.00;;;;;;5099614;28;20208;-83
2023/07/09 07:13:09;;;;;;;4.50;3.50;;;23.10;1.00;;;;;;5098410;28;20203;-84
2023/07/09 07:15:37;;;;;;;3.92;3.50;;;23.20;1.00;;;;;;5099864;28;20185;-83
2023/07/09 07:18:03;;;;;;;5.20;3.92;;;23.40;1.00;;;;;;5098961;28;20184;-84
2023/07/09 07:20:30;;;;;;;4.50;3.70;;;23.50;1.00;;;;;;5097569;28;20177;-83
2023/07/09 07:22:57;;;;;;;4.10;3.58;;;23.70;1.00;;;;;;5100783;28;20176;-83
2023/07/09 07:25:23;;;;;;;4.95;3.53;;;23.90;27.00;;;;;;5104941;28;20682;-83
2023/07/09 07:27:49;;;;;;;5.35;3.70;;;24.00;1.00;;;;;;5100989;28;20180;-83
2023/07/09 07:30:14;;;;;;;4.53;3.80;;;24.20;99.90;;;;;;5102597;28;20203;-83
2023/07/09 07:32:48;;;;;;;4.40;3.67;;;24.30;99.90;;;;;;5093975;28;20165;-84
2023/07/09 07:35:14;;;;;;;4.75;3.45;;;24.40;1.00;;;;;;5105193;28;20210;-85
2023/07/09 07:37:41;;;;;;;5.82;3.65;;;24.60;1.00;;;;;;5102270;28;20173;-85
2023/07/09 07:40:07;;;;;;;8.48;4.30;;;24.70;99.90;;;;;;5102039;28;20188;-83
2023/07/09 07:42:33;;;;;;;5.13;3.60;;;24.90;99.90;;;;;;5093798;28;20214;-84
2023/07/09 07:44:59;;;;;;;4.72;3.90;;;25.10;99.90;;;;;;5104699;28;20212;-84
2023/07/09 07:47:27;;;;;;;4.03;3.50;;;25.20;99.90;;;;;;5104804;28;20223;-84
2023/07/09 07:49:53;;;;;;;4.20;3.33;;;25.40;99.90;;;;;;5099329;28;20241;-85
2023/07/09 07:52:19;;;;;;;5.65;3.70;;;25.50;94.60;;;;;;5099557;28;20203;-85
2023/07/09 07:54:45;;;;;;;7.82;3.97;;;25.60;53.00;;;;;;5097533;28;20596;-85
2023/07/09 07:57:10;;;;;;;332.40;22.95;;;25.80;20.60;;;;;;5104209;28;20643;-83
2023/07/09 07:59:37;;;;;;;5.38;3.50;;;26.00;1.00;;;;;;5103982;28;20729;-80
2023/07/09 08:02:05;;;;;;;4.68;3.30;;;26.20;1.00;;;;;;5101876;28;20198;-85
2023/07/09 08:04:31;;;;;;;4.82;3.33;;;26.40;1.00;;;;;;5103680;28;20244;-85
2023/07/09 08:06:56;;;;;;;5.70;3.50;;;26.60;1.00;;;;;;5105495;28;20172;-84
2023/07/09 08:09:22;;;;;;;4.25;3.22;;;26.90;1.00;;;;;;5103148;28;20209;-83
2023/07/09 08:11:49;;;;;;;4.68;3.15;;;27.10;1.00;;;;;;5104460;28;20204;-83
2023/07/09 08:14:15;;;;;;;3.03;2.72;;;27.30;1.00;;;;;;5103193;28;20224;-84
2023/07/09 08:16:41;;;;;;;4.18;2.65;;;27.40;99.90;;;;;;5104764;28;20171;-82
2023/07/09 08:19:06;;;;;;;5.18;3.03;;;27.60;99.90;;;;;;5103303;28;20625;-84
2023/07/09 08:21:32;;;;;;;4.43;3.40;;;27.90;99.90;;;;;;5102793;28;20204;-84
2023/07/09 08:23:57;;;;;;;3.35;2.60;;;28.10;99.90;;;;;;5103520;28;20280;-84
2023/07/09 08:26:24;;;;;;;3.28;2.55;;;28.30;99.90;;;;;;5105931;28;20239;-83
2023/07/09 08:28:50;;;;;;;4.50;3.00;;;28.30;99.90;;;;;;5106463;28;20165;-83
2023/07/09 08:31:16;;;;;;;3.47;2.70;;;28.40;99.90;;;;;;5104297;28;20211;-84
2023/07/09 08:33:42;;;;;;;7.32;3.22;;;28.60;99.90;;;;;;5103466;28;20164;-83
2023/07/09 08:36:08;;;;;;;4.25;2.97;;;28.80;99.90;;;;;;5106735;28;20169;-84
2023/07/09 08:38:34;;;;;;;3.38;2.63;;;28.90;99.90;;;;;;5098092;28;20184;-84
2023/07/09 08:41:01;;;;;;;3.88;2.70;;;28.90;99.90;;;;;;5105202;28;20172;-84
2023/07/09 08:43:38;;;;;;;4.47;2.92;;;29.10;99.90;;;;;;5105650;28;20168;-84
2023/07/09 08:46:15;;;;;;;4.63;3.00;;;29.20;99.90;;;;;;5105911;28;20172;-84
2023/07/09 08:48:44;;;;;;;3.78;2.90;;;29.30;99.90;;;;;;5095209;28;20657;-84
2023/07/09 08:51:13;;;;;;;5.40;2.90;;;29.40;99.90;;;;;;5097762;28;20196;-84
2023/07/09 08:53:50;;;;;;;5.72;3.10;;;29.60;99.90;;;;;;5108182;28;20255;-84
2023/07/09 08:56:17;;;;;;;4.88;2.80;;;29.60;99.90;;;;;;5106727;28;20675;-84
2023/07/09 08:58:44;;;;;;;3.75;2.72;;;29.70;99.90;;;;;;5108498;28;20380;-84
2023/07/09 09:01:27;;;;;;;4.65;2.97;;;29.80;99.90;;;;;;5107359;28;20240;-85
2023/07/09 09:04:02;;;;;;;4.57;3.15;;;30.00;99.90;;;;;;5108593;28;20670;-84
2023/07/09 09:06:30;;;;;;;4.20;3.30;;;30.10;99.90;;;;;;5108683;28;20179;-85
2023/07/09 09:09:16;;;;;;;4.28;3.42;;;30.20;99.90;;;;;;5109216;28;20184;-83
2023/07/09 09:11:55;;;;;;;4.00;3.40;;;30.40;99.90;;;;;;5108831;28;20199;-84
2023/07/09 09:14:38;;;;;;;4.35;3.85;;;30.50;99.90;;;;;;5109974;28;20206;-85
2023/07/09 09:17:12;;;;;;;5.05;3.45;;;30.50;99.90;;;;;;5093090;28;20181;-83
2023/07/09 09:19:48;;;;;;;4.88;3.63;;;30.60;99.90;;;;;;5091051;28;20169;-83
2023/07/09 09:22:19;;;;;;;4.00;3.00;;;30.70;99.90;;;;;;5087013;28;20177;-80
2023/07/09 09:24:51;;;;;;;5.85;3.45;;;30.70;99.90;;;;;;5088368;28;20234;-84
2023/07/09 09:27:16;;;;;;;4.07;3.60;;;31.00;99.90;;;;;;5090348;28;20165;-84
2023/07/09 09:29:42;;;;;;;5.82;3.50;;;31.20;99.90;;;;;;5103740;28;20245;-84
2023/07/09 09:32:27;;;;;;;6.30;3.92;;;31.30;99.90;;;;;;5094518;28;20176;-84
2023/07/09 09:34:53;;;;;;;4.75;4.03;;;31.40;99.90;;;;;;5109238;28;20221;-84
2023/07/09 09:37:32;;;;;;;4.35;3.63;;;31.40;99.90;;;;;;5093340;28;20196;-85
2023/07/09 09:39:59;;;;;;;4.15;3.72;;;31.30;97.10;;;;;;5088726;28;20176;-84
2023/07/09 09:42:25;;;;;;;4.03;3.55;;;31.50;99.90;;;;;;5086142;28;20173;-83
2023/07/09 09:44:54;;;;;;;4.57;3.60;;;31.60;96.70;;;;;;5079661;28;20211;-83
2023/07/09 09:47:25;;;;;;;5.30;3.53;;;31.70;89.00;;;;;;5079074;28;20176;-83
2023/07/09 09:49:52;;;;;;;6.38;3.60;;;31.60;85.90;;;;;;5076762;28;20175;-84
2023/07/09 09:52:18;;;;;;;3.80;3.25;;;31.90;86.00;;;;;;5075723;28;20173;-83
2023/07/09 09:54:51;;;;;;;4.38;3.70;;;32.00;75.10;;;;;;5077224;28;20204;-83
2023/07/09 09:57:21;;;;;;;4.38;3.30;;;32.20;65.40;;;;;;5078024;28;20179;-83
2023/07/09 09:59:47;;;;;;;5.72;3.80;;;32.10;56.00;;;;;;5075505;28;20173;-82
2023/07/09 10:02:22;;;;;;;4.97;3.53;;;32.30;53.70;;;;;;5077429;28;20172;-83
2023/07/09 10:04:48;;;;;;;6.05;3.53;;;32.50;53.70;;;;;;5081156;28;20189;-83
2023/07/09 10:07:39;;;;;;;4.40;3.63;;;32.60;43.90;;;;;;5076048;28;20172;-84
2023/07/09 10:10:14;;;;;;;4.95;3.10;;;32.80;45.80;;;;;;5076717;28;20197;-84
2023/07/09 10:12:47;;;;;;;4.65;3.28;;;33.00;43.20;;;;;;5074648;28;20168;-82
2023/07/09 10:15:40;;;;;;;4.95;3.60;;;32.90;35.30;;;;;;5076641;28;20189;-83
2023/07/09 10:18:16;;;;;;;4.28;3.33;;;32.70;31.60;;;;;;5075333;28;20164;-83
2023/07/09 10:21:06;;;;;;;4.32;3.63;;;32.70;29.30;;;;;;5076396;28;20169;-84
2023/07/09 10:23:50;;;;;;;5.07;3.53;;;33.00;27.90;;;;;;5076708;28;20181;-83
2023/07/09 10:26:36;;;;;;;7.13;5.82;;;33.10;20.30;;;;;;5075194;28;20192;-84
2023/07/09 10:29:41;;;;;;;6.38;4.10;;;33.10;17.70;;;;;;5074811;28;20208;-83
2023/07/09 10:32:25;;;;;;;4.05;3.45;;;33.10;11.70;;;;;;5086951;28;20208;-86
2023/07/09 10:34:50;;;;;;;4.18;3.55;;;33.10;8.00;;;;;;5090577;28;20682;-83
2023/07/09 10:37:35;;;;;;;3.90;3.33;;;33.30;8.00;;;;;;5085648;28;20177;-83
2023/07/09 10:40:05;;;;;;;6.97;6.28;;;33.30;1.60;;;;;;5075922;28;20179;-84
2023/07/09 10:42:47;;;;;;;4.63;3.53;;;33.60;4.20;;;;;;5074033;28;20184;-83
2023/07/09 10:45:41;;;;;;;6.13;3.65;;;33.50;1.00;;;;;;5074121;28;20200;-83
2023/07/09 10:48:12;;;;;;;7.38;3.70;;;33.60;1.00;;;;;;5073285;28;20189;-84
2023/07/09 10:50:41;;;;;;;4.20;3.17;;;33.90;1.00;;;;;;5073845;28;20193;-84
2023/07/09 10:53:25;;;;;;;5.18;3.53;;;34.20;1.00;;;;;;5074256;28;20173;-83
2023/07/09 10:55:53;;;;;;;5.60;3.67;;;34.10;1.00;;;;;;5076311;28;20195;-83
2023/07/09 10:58:36;;;;;;;3.85;3.20;;;34.10;1.00;;;;;;5078132;28;20179;-84
2023/07/09 11:01:03;;;;;;;6.25;3.85;;;34.20;1.00;;;;;;5078209;28;20176;-83
2023/07/09 11:03:43;;;;;;;6.20;3.78;;;34.30;1.00;;;;;;5079633;28;20173;-84
2023/07/09 11:06:22;;;;;;;4.65;3.40;;;34.30;1.00;;;;;;5079828;28;20179;-83
2023/07/09 11:08:51;;;;;;;4.45;3.30;;;34.20;1.00;;;;;;5078201;28;20184;-83
2023/07/09 11:11:29;;;;;;;5.30;3.60;;;34.40;1.00;;;;;;5079590;28;20192;-83
2023/07/09 11:14:00;;;;;;;5.90;3.97;;;34.50;1.00;;;;;;5080638;28;20250;-85
2023/07/09 11:16:42;;;;;;;3.53;3.22;;;34.80;1.00;;;;;;5080563;28;20168;-83
2023/07/09 11:19:17;;;;;;;4.93;3.50;;;34.60;1.00;;;;;;5080933;28;20169;-83
2023/07/09 11:22:02;;;;;;;5.38;4.00;;;34.60;1.00;;;;;;5085440;28;20167;-83
2023/07/09 11:24:34;;;;;;;6.18;3.63;;;34.80;1.00;;;;;;5095008;28;20227;-83
2023/07/09 11:27:01;;;;;;;5.05;3.60;;;35.00;1.00;;;;;;5095936;28;20172;-83
2023/07/09 11:29:28;;;;;;;4.53;3.80;;;35.00;1.00;;;;;;5100661;28;20176;-83
2023/07/09 11:31:55;;;;;;;5.28;3.63;;;35.40;1.00;;;;;;5100297;28;20612;-84
2023/07/09 11:34:29;;;;;;;4.88;3.53;;;35.50;1.00;;;;;;5100742;28;20569;-83
2023/07/09 11:36:55;;;;;;;5.80;3.53;;;35.70;1.00;;;;;;5100755;28;20164;-83
2023/07/09 11:39:20;;;;;;;5.75;3.45;;;35.70;1.00;;;;;;5099058;28;20192;-84
2023/07/09 11:41:47;;;;;;;5.25;3.40;;;35.60;1.00;;;;;;5098782;28;20173;-84
2023/07/09 11:44:17;;;;;;;5.38;3.38;;;35.60;1.00;;;;;;5101769;28;20192;-84
2023/07/09 11:47:22;;;;;;;6.25;3.65;;;35.40;1.00;;;;;;5099067;28;20647;-84
2023/07/09 11:50:01;;;;;;;4.68;3.33;;;35.30;1.00;;;;;;5100994;28;20230;-83
2023/07/09 11:53:04;;;;;;;5.53;3.45;;;34.90;1.00;;;;;;5101810;28;20176;-84
2023/07/09 11:55:46;;;;;;;6.78;2.97;;;35.30;1.00;;;;;;5095841;22;20228;-79
2023/07/09 11:58:14;;;;;;;5.22;3.40;;;35.50;1.00;;;;;;5093755;28;20526;-78
2023/07/09 12:01:14;;;;;;;5.65;3.47;;;35.40;1.00;;;;;;5093504;28;20203;-79
2023/07/09 12:03:43;;;;;;;4.63;3.42;;;35.40;1.00;;;;;;5094710;28;20593;-79
2023/07/09 12:06:29;;;;;;;3.88;3.17;;;35.30;1.00;;;;;;5094843;28;20219;-80
2023/07/09 12:08:56;;;;;;;4.20;3.20;;;35.40;1.00;;;;;;5090641;28;20180;-79
2023/07/09 12:11:23;;;;;;;3.92;3.47;;;35.60;1.00;;;;;;5093014;28;20261;-79
2023/07/09 12:13:49;;;;;;;4.40;3.40;;;35.70;1.00;;;;;;5094349;28;20184;-79
2023/07/09 12:16:25;;;;;;;4.07;3.17;;;35.90;1.00;;;;;;5094542;28;20189;-80
2023/07/09 12:18:50;;;;;;;5.47;3.35;;;36.30;1.00;;;;;;5094556;28;20236;-79
2023/07/09 12:21:16;;;;;;;4.82;3.67;;;36.20;1.00;;;;;;5093938;28;20192;-79
2023/07/09 12:23:42;;;;;;;6.88;3.65;;;36.10;1.00;;;;;;5093436;28;20230;-79
2023/07/09 12:26:13;;;;;;;3.85;3.38;;;36.00;1.00;;;;;;5081170;28;20197;-80
2023/07/09 12:28:39;;;;;;;3.80;3.28;;;35.70;1.00;;;;;;5073038;28;20176;-79
2023/07/09 12:31:04;;;;;;;4.80;3.65;;;35.80;1.00;;;;;;5072281;28;20287;-79
2023/07/09 12:33:30;;;;;;;4.93;3.92;;;36.20;1.00;;;;;;5073879;28;20195;-79
2023/07/09 12:36:00;;;;;;;3.85;3.40;;;36.10;1.00;;;;;;5072441;28;20192;-79
2023/07/09 12:38:29;;;;;;;4.25;3.40;;;36.50;1.00;;;;;;5074138;28;20184;-79
2023/07/09 12:40:59;;;;;;;4.82;3.50;;;37.00;1.00;;;;;;5072368;28;20231;-79
2023/07/09 12:43:31;;;;;;;6.03;3.53;;;37.10;1.00;;;;;;5073524;28;20222;-79
2023/07/09 12:45:59;;;;;;;4.22;3.63;;;37.10;1.00;;;;;;5072358;28;20196;-79
2023/07/09 12:48:27;;;;;;;4.20;3.45;;;37.20;1.00;;;;;;5078577;28;20263;-79
2023/07/09 12:50:56;;;;;;;4.28;3.40;;;37.00;1.00;;;;;;5085981;28;20291;-79
2023/07/09 12:53:28;;;;;;;4.55;3.35;;;36.50;1.00;;;;;;5073671;28;20184;-79
2023/07/09 12:56:00;;;;;;;4.88;3.22;;;36.50;1.00;;;;;;5072541;28;20583;-79
2023/07/09 12:58:31;;;;;;;5.82;3.53;;;36.50;1.00;;;;;;5073490;28;20166;-79
2023/07/09 13:00:59;;;;;;;5.40;3.20;;;36.40;1.00;;;;;;5071651;28;20200;-79
2023/07/09 13:03:27;;;;;;;4.38;3.15;;;36.40;1.00;;;;;;5092973;28;20172;-80
2023/07/09 13:05:55;;;;;;;4.72;3.63;;;36.40;1.00;;;;;;5092399;28;20203;-79